Smithfield - 24 Hour Table
Date & TimeSolar
Radiation
(W/m²)
Wind
Speed
(mph)
Wind
Direction
(degrees)
Air
Temperature
(°F)
Relative
Humidity
(%)
Precipitation
(inches)
2017/03/24 20:00 0 3.5 57 48.6 45 0.00
2017/03/24 19:00 8 2.6 100 49.9 61 0.00
2017/03/24 18:00 70 4.7 215 51.7 44 0.00
2017/03/24 17:00 259 6.6 224 53.2 49 0.00
2017/03/24 16:00 488 9.0 221 53.9 45 0.00
2017/03/24 15:00 680 10.4 224 53.0 44 0.00
2017/03/24 14:00 769 9.7 218 52.5 45 0.00
2017/03/24 13:00 796 6.1 205 50.4 48 0.00
2017/03/24 12:00 760 4.2 209 47.4 49 0.00
2017/03/24 11:00 671 3.5 261 44.6 60 0.00
2017/03/24 10:00 532 2.8 308 41.3 68 0.00
2017/03/24 09:00 356 2.1 303 38.0 75 0.00
2017/03/24 08:00 139 2.9 37 33.4 81 0.00
2017/03/24 07:00 8 3.6 36 31.7 90 0.00
2017/03/24 06:00 0 2.7 26 32.4 92 0.00
2017/03/24 05:00 0 3.7 45 34.7 81 0.00
2017/03/24 04:00 0 3.4 56 34.5 81 0.00
2017/03/24 03:00 0 3.9 62 35.2 78 0.00
2017/03/24 02:00 0 3.2 77 35.9 82 0.00
2017/03/24 01:00 0 3.9 59 36.7 79 0.00
2017/03/24 00:00 0 4.0 72 37.8 80 0.00
2017/03/23 23:00 0 3.1 57 39.6 79 0.00
2017/03/23 22:00 0 2.2 50 40.5 79 0.00
2017/03/23 21:00 0 2.5 52 42.2 86 0.00